sensor_id;sensor_type;location;lat;lon;timestamp;temperature;humidity
27544;DHT22;17996;51.056;3.656;2022-09-27T00:00:31;11.70;99.90
27544;DHT22;17996;51.056;3.656;2022-09-27T00:02:57;11.70;99.90
27544;DHT22;17996;51.056;3.656;2022-09-27T00:05:23;11.70;99.90
27544;DHT22;17996;51.056;3.656;2022-09-27T00:07:48;11.70;99.90
27544;DHT22;17996;51.056;3.656;2022-09-27T00:10:14;11.90;99.90
27544;DHT22;17996;51.056;3.656;2022-09-27T00:12:41;11.80;99.90
27544;DHT22;17996;51.056;3.656;2022-09-27T00:15:07;11.60;99.90
27544;DHT22;17996;51.056;3.656;2022-09-27T00:17:35;11.60;99.90
27544;DHT22;17996;51.056;3.656;2022-09-27T00:20:02;11.60;99.90
27544;DHT22;17996;51.056;3.656;2022-09-27T00:22:28;11.70;99.90
27544;DHT22;17996;51.056;3.656;2022-09-27T00:24:54;11.90;99.90
27544;DHT22;17996;51.056;3.656;2022-09-27T00:27:20;11.70;99.90
27544;DHT22;17996;51.056;3.656;2022-09-27T00:29:46;11.80;99.90
27544;DHT22;17996;51.056;3.656;2022-09-27T00:32:13;12.00;99.90
27544;DHT22;17996;51.056;3.656;2022-09-27T00:34:39;11.80;99.90
27544;DHT22;17996;51.056;3.656;2022-09-27T00:37:14;12.00;99.90
27544;DHT22;17996;51.056;3.656;2022-09-27T00:39:40;11.80;99.90
27544;DHT22;17996;51.056;3.656;2022-09-27T00:42:10;11.90;99.90
27544;DHT22;17996;51.056;3.656;2022-09-27T00:49:57;11.90;99.90
27544;DHT22;17996;51.056;3.656;2022-09-27T00:52:45;11.90;99.90
27544;DHT22;17996;51.056;3.656;2022-09-27T00:55:22;11.90;99.90
27544;DHT22;17996;51.056;3.656;2022-09-27T00:57:50;11.80;99.90
27544;DHT22;17996;51.056;3.656;2022-09-27T01:00:16;12.10;99.90
27544;DHT22;17996;51.056;3.656;2022-09-27T01:02:46;12.00;99.90
27544;DHT22;17996;51.056;3.656;2022-09-27T01:05:15;11.90;99.90
27544;DHT22;17996;51.056;3.656;2022-09-27T01:07:42;11.90;99.90
27544;DHT22;17996;51.056;3.656;2022-09-27T01:10:08;11.80;99.90
27544;DHT22;17996;51.056;3.656;2022-09-27T01:12:41;11.80;99.90
27544;DHT22;17996;51.056;3.656;2022-09-27T01:15:24;11.80;99.90
27544;DHT22;17996;51.056;3.656;2022-09-27T01:18:30;11.80;99.90
27544;DHT22;17996;51.056;3.656;2022-09-27T01:21:22;11.70;99.90
27544;DHT22;17996;51.056;3.656;2022-09-27T01:27:13;11.70;99.90
27544;DHT22;17996;51.056;3.656;2022-09-27T01:32:26;11.60;99.90
27544;DHT22;17996;51.056;3.656;2022-09-27T01:36:02;11.60;99.90
27544;DHT22;17996;51.056;3.656;2022-09-27T01:38:20;11.90;99.90
27544;DHT22;17996;51.056;3.656;2022-09-27T01:41:03;11.70;99.90
27544;DHT22;17996;51.056;3.656;2022-09-27T01:43:49;11.70;99.90
27544;DHT22;17996;51.056;3.656;2022-09-27T01:46:28;11.80;99.90
27544;DHT22;17996;51.056;3.656;2022-09-27T01:48:57;11.70;99.90
27544;DHT22;17996;51.056;3.656;2022-09-27T01:51:28;11.70;99.90
27544;DHT22;17996;51.056;3.656;2022-09-27T01:53:59;11.70;99.90
27544;DHT22;17996;51.056;3.656;2022-09-27T01:56:33;11.70;99.90
27544;DHT22;17996;51.056;3.656;2022-09-27T01:59:21;11.70;99.90
27544;DHT22;17996;51.056;3.656;2022-09-27T02:01:50;11.80;99.90
27544;DHT22;17996;51.056;3.656;2022-09-27T02:04:23;11.80;99.90
27544;DHT22;17996;51.056;3.656;2022-09-27T02:06:56;11.90;99.90
27544;DHT22;17996;51.056;3.656;2022-09-27T02:09:31;12.00;99.90
27544;DHT22;17996;51.056;3.656;2022-09-27T02:12:03;11.80;99.90
27544;DHT22;17996;51.056;3.656;2022-09-27T02:14:37;11.90;99.90
27544;DHT22;17996;51.056;3.656;2022-09-27T02:17:20;11.90;99.90
27544;DHT22;17996;51.056;3.656;2022-09-27T02:20:30;11.90;99.90
27544;DHT22;17996;51.056;3.656;2022-09-27T02:23:42;11.90;99.90
27544;DHT22;17996;51.056;3.656;2022-09-27T02:25:58;11.80;99.90
27544;DHT22;17996;51.056;3.656;2022-09-27T02:31:17;11.80;99.90
27544;DHT22;17996;51.056;3.656;2022-09-27T02:33:46;11.70;99.90
27544;DHT22;17996;51.056;3.656;2022-09-27T02:36:14;11.80;99.90
27544;DHT22;17996;51.056;3.656;2022-09-27T02:38:40;11.80;99.90
27544;DHT22;17996;51.056;3.656;2022-09-27T02:41:15;11.90;99.90
27544;DHT22;17996;51.056;3.656;2022-09-27T02:43:43;12.00;99.90
27544;DHT22;17996;51.056;3.656;2022-09-27T02:49:13;11.70;99.90
27544;DHT22;17996;51.056;3.656;2022-09-27T02:57:35;11.60;99.90
27544;DHT22;17996;51.056;3.656;2022-09-27T03:00:13;11.60;99.90
27544;DHT22;17996;51.056;3.656;2022-09-27T03:05:21;11.50;99.90
27544;DHT22;17996;51.056;3.656;2022-09-27T03:07:48;11.50;99.90
27544;DHT22;17996;51.056;3.656;2022-09-27T03:10:19;11.50;99.90
27544;DHT22;17996;51.056;3.656;2022-09-27T03:12:46;11.50;99.90
27544;DHT22;17996;51.056;3.656;2022-09-27T03:15:11;11.60;99.90
27544;DHT22;17996;51.056;3.656;2022-09-27T03:17:38;11.60;99.90
27544;DHT22;17996;51.056;3.656;2022-09-27T03:20:04;11.60;99.90
27544;DHT22;17996;51.056;3.656;2022-09-27T03:22:31;11.60;99.90
27544;DHT22;17996;51.056;3.656;2022-09-27T03:24:56;11.60;99.90
27544;DHT22;17996;51.056;3.656;2022-09-27T03:27:23;11.80;99.90
27544;DHT22;17996;51.056;3.656;2022-09-27T03:29:49;11.60;99.90
27544;DHT22;17996;51.056;3.656;2022-09-27T03:32:14;11.60;99.90
27544;DHT22;17996;51.056;3.656;2022-09-27T03:34:40;11.80;99.90
27544;DHT22;17996;51.056;3.656;2022-09-27T03:37:06;11.60;99.90
27544;DHT22;17996;51.056;3.656;2022-09-27T03:39:32;11.60;99.90
27544;DHT22;17996;51.056;3.656;2022-09-27T03:41:58;11.60;99.90
27544;DHT22;17996;51.056;3.656;2022-09-27T03:44:24;11.50;99.90
27544;DHT22;17996;51.056;3.656;2022-09-27T03:46:50;11.50;99.90
27544;DHT22;17996;51.056;3.656;2022-09-27T03:49:15;11.50;99.90
27544;DHT22;17996;51.056;3.656;2022-09-27T03:51:42;11.40;99.90
27544;DHT22;17996;51.056;3.656;2022-09-27T03:54:08;11.50;99.90
27544;DHT22;17996;51.056;3.656;2022-09-27T03:56:33;11.30;99.90
27544;DHT22;17996;51.056;3.656;2022-09-27T03:58:59;11.20;99.90
27544;DHT22;17996;51.056;3.656;2022-09-27T04:01:25;11.20;99.90
27544;DHT22;17996;51.056;3.656;2022-09-27T04:03:52;11.20;99.90
27544;DHT22;17996;51.056;3.656;2022-09-27T04:06:18;11.00;99.90
27544;DHT22;17996;51.056;3.656;2022-09-27T04:08:44;11.20;99.90
27544;DHT22;17996;51.056;3.656;2022-09-27T04:11:10;10.90;99.90
27544;DHT22;17996;51.056;3.656;2022-09-27T04:13:36;11.00;99.90
27544;DHT22;17996;51.056;3.656;2022-09-27T04:16:02;10.90;99.90
27544;DHT22;17996;51.056;3.656;2022-09-27T04:18:28;10.70;99.90
27544;DHT22;17996;51.056;3.656;2022-09-27T04:20:53;10.70;99.90
27544;DHT22;17996;51.056;3.656;2022-09-27T04:23:19;10.70;99.90
27544;DHT22;17996;51.056;3.656;2022-09-27T04:25:46;10.70;99.90
27544;DHT22;17996;51.056;3.656;2022-09-27T04:28:11;10.60;99.90
27544;DHT22;17996;51.056;3.656;2022-09-27T04:30:37;10.60;99.90
27544;DHT22;17996;51.056;3.656;2022-09-27T04:33:03;10.50;99.90
27544;DHT22;17996;51.056;3.656;2022-09-27T04:35:29;10.60;99.90
27544;DHT22;17996;51.056;3.656;2022-09-27T04:38:13;10.70;99.90
27544;DHT22;17996;51.056;3.656;2022-09-27T04:40:39;10.60;99.90
27544;DHT22;17996;51.056;3.656;2022-09-27T04:43:06;10.60;99.90
27544;DHT22;17996;51.056;3.656;2022-09-27T04:45:32;10.60;99.90
27544;DHT22;17996;51.056;3.656;2022-09-27T04:47:58;10.60;99.90
27544;DHT22;17996;51.056;3.656;2022-09-27T04:50:24;10.60;99.90
27544;DHT22;17996;51.056;3.656;2022-09-27T04:52:51;10.60;99.90
27544;DHT22;17996;51.056;3.656;2022-09-27T04:55:18;10.60;99.90
27544;DHT22;17996;51.056;3.656;2022-09-27T04:57:45;10.60;99.90
27544;DHT22;17996;51.056;3.656;2022-09-27T05:00:11;10.50;99.90
27544;DHT22;17996;51.056;3.656;2022-09-27T05:02:37;10.50;99.90
27544;DHT22;17996;51.056;3.656;2022-09-27T05:05:03;10.50;99.90
27544;DHT22;17996;51.056;3.656;2022-09-27T05:07:28;10.50;99.90
27544;DHT22;17996;51.056;3.656;2022-09-27T05:09:54;10.50;99.90
27544;DHT22;17996;51.056;3.656;2022-09-27T05:12:21;10.60;99.90
27544;DHT22;17996;51.056;3.656;2022-09-27T05:14:47;10.40;99.90
27544;DHT22;17996;51.056;3.656;2022-09-27T05:17:13;10.40;99.90
27544;DHT22;17996;51.056;3.656;2022-09-27T05:19:38;10.50;99.90
27544;DHT22;17996;51.056;3.656;2022-09-27T05:22:05;10.30;99.90
27544;DHT22;17996;51.056;3.656;2022-09-27T05:24:31;10.30;99.90
27544;DHT22;17996;51.056;3.656;2022-09-27T05:26:58;10.40;99.90
27544;DHT22;17996;51.056;3.656;2022-09-27T05:29:24;10.50;99.90
27544;DHT22;17996;51.056;3.656;2022-09-27T05:31:49;10.20;99.90
27544;DHT22;17996;51.056;3.656;2022-09-27T05:34:15;10.30;99.90
27544;DHT22;17996;51.056;3.656;2022-09-27T05:36:42;10.20;99.90
27544;DHT22;17996;51.056;3.656;2022-09-27T05:39:08;10.20;99.90
27544;DHT22;17996;51.056;3.656;2022-09-27T05:41:34;10.30;99.90
27544;DHT22;17996;51.056;3.656;2022-09-27T05:43:59;10.30;99.90
27544;DHT22;17996;51.056;3.656;2022-09-27T05:46:25;10.30;99.90
27544;DHT22;17996;51.056;3.656;2022-09-27T05:48:51;10.40;99.90
27544;DHT22;17996;51.056;3.656;2022-09-27T05:51:16;10.40;99.90
27544;DHT22;17996;51.056;3.656;2022-09-27T05:53:43;10.30;99.90
27544;DHT22;17996;51.056;3.656;2022-09-27T05:56:09;10.30;99.90
27544;DHT22;17996;51.056;3.656;2022-09-27T05:58:34;10.30;99.90
27544;DHT22;17996;51.056;3.656;2022-09-27T06:01:00;10.50;99.90
27544;DHT22;17996;51.056;3.656;2022-09-27T06:03:26;10.50;99.90
27544;DHT22;17996;51.056;3.656;2022-09-27T06:05:51;10.30;99.90
27544;DHT22;17996;51.056;3.656;2022-09-27T06:08:17;10.40;99.90
27544;DHT22;17996;51.056;3.656;2022-09-27T06:10:44;10.30;99.90
27544;DHT22;17996;51.056;3.656;2022-09-27T06:13:13;10.40;99.90
27544;DHT22;17996;51.056;3.656;2022-09-27T06:15:42;10.40;99.90
27544;DHT22;17996;51.056;3.656;2022-09-27T06:18:11;10.40;99.90
27544;DHT22;17996;51.056;3.656;2022-09-27T06:20:38;10.50;99.90
27544;DHT22;17996;51.056;3.656;2022-09-27T06:23:12;10.50;99.90
27544;DHT22;17996;51.056;3.656;2022-09-27T06:25:39;10.40;99.90
27544;DHT22;17996;51.056;3.656;2022-09-27T06:28:05;10.40;99.90
27544;DHT22;17996;51.056;3.656;2022-09-27T06:30:31;10.40;99.90
27544;DHT22;17996;51.056;3.656;2022-09-27T06:32:58;10.50;99.90
27544;DHT22;17996;51.056;3.656;2022-09-27T06:35:26;10.50;99.90
27544;DHT22;17996;51.056;3.656;2022-09-27T06:37:57;10.50;99.90
27544;DHT22;17996;51.056;3.656;2022-09-27T06:40:27;10.60;99.90
27544;DHT22;17996;51.056;3.656;2022-09-27T06:42:52;10.60;99.90
27544;DHT22;17996;51.056;3.656;2022-09-27T06:45:18;10.60;99.90
27544;DHT22;17996;51.056;3.656;2022-09-27T06:47:44;10.70;99.90
27544;DHT22;17996;51.056;3.656;2022-09-27T06:50:11;10.70;99.90
27544;DHT22;17996;51.056;3.656;2022-09-27T06:52:37;10.60;99.90
27544;DHT22;17996;51.056;3.656;2022-09-27T06:55:10;10.60;99.90
27544;DHT22;17996;51.056;3.656;2022-09-27T06:57:36;10.60;99.90
27544;DHT22;17996;51.056;3.656;2022-09-27T07:00:20;10.70;99.90
27544;DHT22;17996;51.056;3.656;2022-09-27T07:02:49;10.70;99.90
27544;DHT22;17996;51.056;3.656;2022-09-27T07:05:16;10.80;99.90
27544;DHT22;17996;51.056;3.656;2022-09-27T07:07:42;10.70;99.90
27544;DHT22;17996;51.056;3.656;2022-09-27T07:10:12;10.70;99.90
27544;DHT22;17996;51.056;3.656;2022-09-27T07:12:38;10.70;99.90
27544;DHT22;17996;51.056;3.656;2022-09-27T07:15:04;10.70;99.90
27544;DHT22;17996;51.056;3.656;2022-09-27T07:17:31;10.80;99.90
27544;DHT22;17996;51.056;3.656;2022-09-27T07:19:56;10.80;99.90
27544;DHT22;17996;51.056;3.656;2022-09-27T07:22:22;10.90;99.90
27544;DHT22;17996;51.056;3.656;2022-09-27T07:24:47;10.70;99.90
27544;DHT22;17996;51.056;3.656;2022-09-27T07:27:14;10.80;99.90
27544;DHT22;17996;51.056;3.656;2022-09-27T07:29:40;10.80;99.90
27544;DHT22;17996;51.056;3.656;2022-09-27T07:32:06;10.70;99.90
27544;DHT22;17996;51.056;3.656;2022-09-27T07:34:34;10.60;99.90
27544;DHT22;17996;51.056;3.656;2022-09-27T07:37:01;10.60;99.90
27544;DHT22;17996;51.056;3.656;2022-09-27T07:39:32;10.70;99.90
27544;DHT22;17996;51.056;3.656;2022-09-27T07:41:58;10.70;99.90
27544;DHT22;17996;51.056;3.656;2022-09-27T07:44:24;10.90;99.90
27544;DHT22;17996;51.056;3.656;2022-09-27T07:46:50;10.80;99.90
27544;DHT22;17996;51.056;3.656;2022-09-27T07:49:16;10.80;99.90
27544;DHT22;17996;51.056;3.656;2022-09-27T07:51:42;10.90;99.90
27544;DHT22;17996;51.056;3.656;2022-09-27T07:54:07;11.10;99.90
27544;DHT22;17996;51.056;3.656;2022-09-27T07:56:33;11.00;99.90
27544;DHT22;17996;51.056;3.656;2022-09-27T07:58:58;11.10;99.90
27544;DHT22;17996;51.056;3.656;2022-09-27T08:01:24;11.10;99.90
27544;DHT22;17996;51.056;3.656;2022-09-27T08:03:50;11.10;99.90
27544;DHT22;17996;51.056;3.656;2022-09-27T08:06:15;11.10;99.90
27544;DHT22;17996;51.056;3.656;2022-09-27T08:08:42;11.20;99.90
27544;DHT22;17996;51.056;3.656;2022-09-27T08:11:15;11.20;99.90
27544;DHT22;17996;51.056;3.656;2022-09-27T08:13:42;11.20;99.90
27544;DHT22;17996;51.056;3.656;2022-09-27T08:16:07;11.30;99.90
27544;DHT22;17996;51.056;3.656;2022-09-27T08:18:33;11.30;99.90
27544;DHT22;17996;51.056;3.656;2022-09-27T08:20:59;11.20;99.90
27544;DHT22;17996;51.056;3.656;2022-09-27T08:23:25;11.20;99.90
27544;DHT22;17996;51.056;3.656;2022-09-27T08:25:54;11.40;99.90
27544;DHT22;17996;51.056;3.656;2022-09-27T08:28:22;11.30;99.90
27544;DHT22;17996;51.056;3.656;2022-09-27T08:30:48;11.40;99.90
27544;DHT22;17996;51.056;3.656;2022-09-27T08:33:14;11.50;99.90
27544;DHT22;17996;51.056;3.656;2022-09-27T08:35:39;11.50;99.90
27544;DHT22;17996;51.056;3.656;2022-09-27T08:38:05;11.50;99.90
27544;DHT22;17996;51.056;3.656;2022-09-27T08:40:58;11.60;99.90
27544;DHT22;17996;51.056;3.656;2022-09-27T08:48:36;12.00;99.90
27544;DHT22;17996;51.056;3.656;2022-09-27T08:51:04;12.00;99.90
27544;DHT22;17996;51.056;3.656;2022-09-27T08:53:39;12.10;99.90
27544;DHT22;17996;51.056;3.656;2022-09-27T08:56:07;12.30;99.90
27544;DHT22;17996;51.056;3.656;2022-09-27T08:58:36;12.10;99.90
27544;DHT22;17996;51.056;3.656;2022-09-27T09:01:05;11.90;99.90
27544;DHT22;17996;51.056;3.656;2022-09-27T09:03:37;11.90;99.90
27544;DHT22;17996;51.056;3.656;2022-09-27T09:06:24;11.90;99.90
27544;DHT22;17996;51.056;3.656;2022-09-27T09:09:12;11.80;99.90
27544;DHT22;17996;51.056;3.656;2022-09-27T09:15:05;11.70;99.90
27544;DHT22;17996;51.056;3.656;2022-09-27T09:18:01;11.70;99.90
27544;DHT22;17996;51.056;3.656;2022-09-27T09:23:31;11.80;99.90
27544;DHT22;17996;51.056;3.656;2022-09-27T09:34:46;11.80;99.90
27544;DHT22;17996;51.056;3.656;2022-09-27T09:37:36;12.00;99.90
27544;DHT22;17996;51.056;3.656;2022-09-27T09:45:28;12.40;99.90
27544;DHT22;17996;51.056;3.656;2022-09-27T09:51:03;12.20;99.90
27544;DHT22;17996;51.056;3.656;2022-09-27T09:56:02;12.10;99.90
27544;DHT22;17996;51.056;3.656;2022-09-27T09:59:13;12.30;99.90
27544;DHT22;17996;51.056;3.656;2022-09-27T10:01:41;12.10;99.90
27544;DHT22;17996;51.056;3.656;2022-09-27T10:04:17;12.20;99.90
27544;DHT22;17996;51.056;3.656;2022-09-27T10:06:44;11.90;99.90
27544;DHT22;17996;51.056;3.656;2022-09-27T10:09:14;11.80;99.90
27544;DHT22;17996;51.056;3.656;2022-09-27T10:11:44;11.60;99.90
27544;DHT22;17996;51.056;3.656;2022-09-27T10:14:13;11.10;99.90
27544;DHT22;17996;51.056;3.656;2022-09-27T10:16:46;11.10;99.90
27544;DHT22;17996;51.056;3.656;2022-09-27T10:19:17;10.90;99.90
27544;DHT22;17996;51.056;3.656;2022-09-27T10:21:48;11.10;99.90
27544;DHT22;17996;51.056;3.656;2022-09-27T10:24:16;11.00;99.90
27544;DHT22;17996;51.056;3.656;2022-09-27T10:26:43;11.10;99.90
27544;DHT22;17996;51.056;3.656;2022-09-27T10:29:24;11.30;99.90
27544;DHT22;17996;51.056;3.656;2022-09-27T10:31:55;11.20;99.90
27544;DHT22;17996;51.056;3.656;2022-09-27T10:37:16;11.20;99.90
27544;DHT22;17996;51.056;3.656;2022-09-27T10:39:47;11.20;99.90
27544;DHT22;17996;51.056;3.656;2022-09-27T10:47:52;11.60;99.90
27544;DHT22;17996;51.056;3.656;2022-09-27T10:50:25;11.70;99.90
27544;DHT22;17996;51.056;3.656;2022-09-27T10:55:26;12.20;99.90
27544;DHT22;17996;51.056;3.656;2022-09-27T10:57:53;12.40;99.90
27544;DHT22;17996;51.056;3.656;2022-09-27T11:00:33;12.80;99.90
27544;DHT22;17996;51.056;3.656;2022-09-27T11:03:13;12.80;99.90
27544;DHT22;17996;51.056;3.656;2022-09-27T11:05:39;13.10;99.90
27544;DHT22;17996;51.056;3.656;2022-09-27T11:10:42;13.50;99.90
27544;DHT22;17996;51.056;3.656;2022-09-27T11:13:16;13.50;99.90
27544;DHT22;17996;51.056;3.656;2022-09-27T11:29:31;13.20;99.90
27544;DHT22;17996;51.056;3.656;2022-09-27T11:37:37;12.80;99.90
27544;DHT22;17996;51.056;3.656;2022-09-27T11:45:52;12.90;99.90
27544;DHT22;17996;51.056;3.656;2022-09-27T12:08:03;12.90;99.90
27544;DHT22;17996;51.056;3.656;2022-09-27T12:10:30;13.10;99.90
27544;DHT22;17996;51.056;3.656;2022-09-27T12:12:57;13.40;99.90
27544;DHT22;17996;51.056;3.656;2022-09-27T12:15:29;13.20;99.90
27544;DHT22;17996;51.056;3.656;2022-09-27T12:18:28;13.40;99.90
27544;DHT22;17996;51.056;3.656;2022-09-27T12:20:58;13.20;99.90
27544;DHT22;17996;51.056;3.656;2022-09-27T12:23:44;13.30;99.90
27544;DHT22;17996;51.056;3.656;2022-09-27T12:26:24;13.30;99.90
27544;DHT22;17996;51.056;3.656;2022-09-27T12:31:33;13.40;99.90
27544;DHT22;17996;51.056;3.656;2022-09-27T12:34:14;13.20;99.90
27544;DHT22;17996;51.056;3.656;2022-09-27T12:36:46;13.10;99.90
27544;DHT22;17996;51.056;3.656;2022-09-27T12:39:21;13.10;99.90
27544;DHT22;17996;51.056;3.656;2022-09-27T12:41:53;13.20;99.90
27544;DHT22;17996;51.056;3.656;2022-09-27T12:44:27;13.20;99.90
27544;DHT22;17996;51.056;3.656;2022-09-27T12:47:12;13.20;99.90
27544;DHT22;17996;51.056;3.656;2022-09-27T12:52:26;13.00;99.90
27544;DHT22;17996;51.056;3.656;2022-09-27T13:03:53;13.10;99.90
27544;DHT22;17996;51.056;3.656;2022-09-27T13:06:30;13.10;99.90
27544;DHT22;17996;51.056;3.656;2022-09-27T13:09:26;13.10;99.90
27544;DHT22;17996;51.056;3.656;2022-09-27T13:15:24;13.10;99.90
27544;DHT22;17996;51.056;3.656;2022-09-27T13:23:02;13.40;99.90
27544;DHT22;17996;51.056;3.656;2022-09-27T13:25:52;13.40;99.90
27544;DHT22;17996;51.056;3.656;2022-09-27T13:39:19;13.50;99.90
27544;DHT22;17996;51.056;3.656;2022-09-27T13:44:25;13.20;99.90
27544;DHT22;17996;51.056;3.656;2022-09-27T13:46:59;13.20;99.90
27544;DHT22;17996;51.056;3.656;2022-09-27T13:49:39;13.30;99.90
27544;DHT22;17996;51.056;3.656;2022-09-27T13:54:59;13.30;99.90
27544;DHT22;17996;51.056;3.656;2022-09-27T13:57:53;13.20;99.90
27544;DHT22;17996;51.056;3.656;2022-09-27T14:00:26;13.20;99.90
27544;DHT22;17996;51.056;3.656;2022-09-27T14:05:51;12.90;99.90
27544;DHT22;17996;51.056;3.656;2022-09-27T14:08:50;12.80;99.90
27544;DHT22;17996;51.056;3.656;2022-09-27T14:11:49;12.60;99.90
27544;DHT22;17996;51.056;3.656;2022-09-27T14:14:21;12.40;99.90
27544;DHT22;17996;51.056;3.656;2022-09-27T14:16:48;12.10;99.90
27544;DHT22;17996;51.056;3.656;2022-09-27T14:19:17;12.00;99.90
27544;DHT22;17996;51.056;3.656;2022-09-27T14:21:42;12.20;99.90
27544;DHT22;17996;51.056;3.656;2022-09-27T14:24:29;12.20;99.90
27544;DHT22;17996;51.056;3.656;2022-09-27T14:32:51;12.50;99.90
27544;DHT22;17996;51.056;3.656;2022-09-27T14:35:24;12.50;99.90
27544;DHT22;17996;51.056;3.656;2022-09-27T14:38:17;12.70;99.90
27544;DHT22;17996;51.056;3.656;2022-09-27T14:40:56;12.90;99.90
27544;DHT22;17996;51.056;3.656;2022-09-27T14:43:22;13.10;99.90
27544;DHT22;17996;51.056;3.656;2022-09-27T14:45:50;13.20;99.90
27544;DHT22;17996;51.056;3.656;2022-09-27T14:53:27;13.50;99.90
27544;DHT22;17996;51.056;3.656;2022-09-27T14:55:54;13.40;99.90
27544;DHT22;17996;51.056;3.656;2022-09-27T14:58:21;13.40;99.90
27544;DHT22;17996;51.056;3.656;2022-09-27T15:00:48;13.30;99.90
27544;DHT22;17996;51.056;3.656;2022-09-27T15:03:24;13.30;99.90
27544;DHT22;17996;51.056;3.656;2022-09-27T15:05:52;13.20;99.90
27544;DHT22;17996;51.056;3.656;2022-09-27T15:08:22;13.10;99.90
27544;DHT22;17996;51.056;3.656;2022-09-27T15:10:48;13.00;99.90
27544;DHT22;17996;51.056;3.656;2022-09-27T15:13:16;13.10;99.90
27544;DHT22;17996;51.056;3.656;2022-09-27T15:15:43;13.20;99.90
27544;DHT22;17996;51.056;3.656;2022-09-27T15:21:07;13.50;99.90
27544;DHT22;17996;51.056;3.656;2022-09-27T15:23:42;13.60;99.90
27544;DHT22;17996;51.056;3.656;2022-09-27T15:26:21;13.80;99.90
27544;DHT22;17996;51.056;3.656;2022-09-27T15:28:49;14.00;99.90
27544;DHT22;17996;51.056;3.656;2022-09-27T15:31:17;14.20;99.90
27544;DHT22;17996;51.056;3.656;2022-09-27T15:33:52;14.10;99.90
27544;DHT22;17996;51.056;3.656;2022-09-27T15:42:13;13.90;99.90
27544;DHT22;17996;51.056;3.656;2022-09-27T15:52:49;13.70;99.90
27544;DHT22;17996;51.056;3.656;2022-09-27T15:55:24;13.70;99.90
27544;DHT22;17996;51.056;3.656;2022-09-27T15:57:55;13.60;99.90
27544;DHT22;17996;51.056;3.656;2022-09-27T16:00:24;13.60;99.90
27544;DHT22;17996;51.056;3.656;2022-09-27T16:02:50;13.60;99.90
27544;DHT22;17996;51.056;3.656;2022-09-27T16:05:15;13.50;99.90
27544;DHT22;17996;51.056;3.656;2022-09-27T16:07:41;13.50;99.90
27544;DHT22;17996;51.056;3.656;2022-09-27T16:10:15;13.50;99.90
27544;DHT22;17996;51.056;3.656;2022-09-27T16:12:42;13.60;99.90
27544;DHT22;17996;51.056;3.656;2022-09-27T16:15:10;13.60;99.90
27544;DHT22;17996;51.056;3.656;2022-09-27T16:17:36;13.50;99.90
27544;DHT22;17996;51.056;3.656;2022-09-27T16:20:08;13.50;99.90
27544;DHT22;17996;51.056;3.656;2022-09-27T16:22:38;13.40;99.90
27544;DHT22;17996;51.056;3.656;2022-09-27T16:25:04;13.30;99.90
27544;DHT22;17996;51.056;3.656;2022-09-27T16:27:30;13.20;99.90
27544;DHT22;17996;51.056;3.656;2022-09-27T16:29:58;13.40;99.90
27544;DHT22;17996;51.056;3.656;2022-09-27T16:32:23;13.20;99.90
27544;DHT22;17996;51.056;3.656;2022-09-27T16:34:50;13.20;99.90
27544;DHT22;17996;51.056;3.656;2022-09-27T16:37:15;13.30;99.90
27544;DHT22;17996;51.056;3.656;2022-09-27T16:39:41;13.20;99.90
27544;DHT22;17996;51.056;3.656;2022-09-27T16:42:06;13.20;99.90
27544;DHT22;17996;51.056;3.656;2022-09-27T16:44:33;13.10;99.90
27544;DHT22;17996;51.056;3.656;2022-09-27T16:47:01;13.10;99.90
27544;DHT22;17996;51.056;3.656;2022-09-27T16:49:26;13.00;99.90
27544;DHT22;17996;51.056;3.656;2022-09-27T16:52:10;13.00;99.90
27544;DHT22;17996;51.056;3.656;2022-09-27T16:54:36;12.90;99.90
27544;DHT22;17996;51.056;3.656;2022-09-27T16:57:02;12.80;99.90
27544;DHT22;17996;51.056;3.656;2022-09-27T16:59:27;12.70;99.90
27544;DHT22;17996;51.056;3.656;2022-09-27T17:01:53;12.30;99.90
27544;DHT22;17996;51.056;3.656;2022-09-27T17:04:23;12.20;99.90
27544;DHT22;17996;51.056;3.656;2022-09-27T17:06:49;11.80;99.90
27544;DHT22;17996;51.056;3.656;2022-09-27T17:09:15;11.60;99.90
27544;DHT22;17996;51.056;3.656;2022-09-27T17:11:41;11.50;99.90
27544;DHT22;17996;51.056;3.656;2022-09-27T17:14:08;11.20;99.90
27544;DHT22;17996;51.056;3.656;2022-09-27T17:16:34;11.00;99.90
27544;DHT22;17996;51.056;3.656;2022-09-27T17:19:00;11.00;99.90
27544;DHT22;17996;51.056;3.656;2022-09-27T17:21:26;11.00;99.90
27544;DHT22;17996;51.056;3.656;2022-09-27T17:23:52;11.00;99.90
27544;DHT22;17996;51.056;3.656;2022-09-27T17:26:20;11.10;99.90
27544;DHT22;17996;51.056;3.656;2022-09-27T17:28:47;11.30;99.90
27544;DHT22;17996;51.056;3.656;2022-09-27T17:31:16;11.20;99.90
27544;DHT22;17996;51.056;3.656;2022-09-27T17:33:45;11.30;99.90
27544;DHT22;17996;51.056;3.656;2022-09-27T17:36:16;11.40;99.90
27544;DHT22;17996;51.056;3.656;2022-09-27T17:38:43;11.50;99.90
27544;DHT22;17996;51.056;3.656;2022-09-27T17:41:12;11.50;99.90
27544;DHT22;17996;51.056;3.656;2022-09-27T17:43:39;11.50;99.90
27544;DHT22;17996;51.056;3.656;2022-09-27T17:46:12;11.50;99.90
27544;DHT22;17996;51.056;3.656;2022-09-27T17:48:37;11.50;99.90
27544;DHT22;17996;51.056;3.656;2022-09-27T17:51:22;11.50;99.90
27544;DHT22;17996;51.056;3.656;2022-09-27T17:53:48;11.80;99.90
27544;DHT22;17996;51.056;3.656;2022-09-27T17:56:15;11.60;99.90
27544;DHT22;17996;51.056;3.656;2022-09-27T17:58:48;11.60;99.90
27544;DHT22;17996;51.056;3.656;2022-09-27T18:01:15;11.60;99.90
27544;DHT22;17996;51.056;3.656;2022-09-27T18:03:41;11.60;99.90
27544;DHT22;17996;51.056;3.656;2022-09-27T18:06:08;11.70;99.90
27544;DHT22;17996;51.056;3.656;2022-09-27T18:08:34;11.70;99.90
27544;DHT22;17996;51.056;3.656;2022-09-27T18:11:08;11.80;99.90
27544;DHT22;17996;51.056;3.656;2022-09-27T18:13:34;11.60;99.90
27544;DHT22;17996;51.056;3.656;2022-09-27T18:16:17;11.60;99.90
27544;DHT22;17996;51.056;3.656;2022-09-27T18:18:45;11.50;99.90
27544;DHT22;17996;51.056;3.656;2022-09-27T18:21:18;11.50;99.90
27544;DHT22;17996;51.056;3.656;2022-09-27T18:23:48;11.60;99.90
27544;DHT22;17996;51.056;3.656;2022-09-27T18:26:15;11.40;99.90
27544;DHT22;17996;51.056;3.656;2022-09-27T18:28:41;11.40;99.90
27544;DHT22;17996;51.056;3.656;2022-09-27T18:31:09;11.30;99.90
27544;DHT22;17996;51.056;3.656;2022-09-27T18:33:35;11.30;99.90
27544;DHT22;17996;51.056;3.656;2022-09-27T18:36:06;11.30;99.90
27544;DHT22;17996;51.056;3.656;2022-09-27T18:38:32;11.30;99.90
27544;DHT22;17996;51.056;3.656;2022-09-27T18:41:25;11.20;99.90
27544;DHT22;17996;51.056;3.656;2022-09-27T18:43:53;11.30;99.90
27544;DHT22;17996;51.056;3.656;2022-09-27T18:46:24;11.30;99.90
27544;DHT22;17996;51.056;3.656;2022-09-27T18:48:50;11.40;99.90
27544;DHT22;17996;51.056;3.656;2022-09-27T18:51:21;11.30;99.90
27544;DHT22;17996;51.056;3.656;2022-09-27T18:53:54;11.10;99.90